Owen, Kentucky
Current Conditions -  °F | °C
As of 2:53 AM on Tuesday 21 Oct 2014 (Local Time) from KFFT Reporting Station
Broken Clouds Broken Clouds  
Wind Chill: 52°   Ceiling: 6000
Heat Index: 52°   Visibility: 10mi
Dew Point: 49°   Wind: 3mph
Humidity: 89%   Direction: 280°W
Pressure: 29.94"   Gusts: NA
Location:  38.5364°N, 84.5918°W
Report Text: KFFT 210653Z AUTO 28003KT 10SM BKN060 11/09 A2994 RMK AO2 SLP136 T01110094
Loading
Personal Weather Stations






























Interactive Weather Map New forecast layout! Learn more

10-Day Weather Forecast

Advertisements
Track Severe Weather on mobile